Time;durP1;ratioP1;P1;durP2;ratioP2;P2;SDS_P1;SDS_P2;PMS_P1;PMS_P2;Temp;Humidity;BMP_temperature;BMP_pressure;BME280_temperature;BME280_humidity;BME280_pressure;Samples;Min_cycle;Max_cycle;Signal;HPM_P1;HPM_P2
2022/04/01 00:01:20;;;;;;;3.30;1.43;;;13.50;47.20;;;;;;4947864;29;20444;-85
2022/04/01 00:03:48;;;;;;;6.83;1.10;;;13.50;47.20;;;;;;4949547;29;20471;-85
2022/04/01 00:06:18;;;;;;;2.40;1.10;;;13.40;47.30;;;;;;4951093;29;20507;-85
2022/04/01 00:08:46;;;;;;;2.73;1.03;;;13.40;47.40;;;;;;4950406;29;20452;-86
2022/04/01 00:11:16;;;;;;;3.27;1.23;;;13.40;47.20;;;;;;4963175;28;20467;-86
2022/04/01 00:13:44;;;;;;;1.20;1.10;;;13.40;47.60;;;;;;4963925;28;20448;-85
2022/04/01 00:16:13;;;;;;;3.63;1.00;;;13.50;47.20;;;;;;4959854;28;20475;-87
2022/04/01 00:18:41;;;;;;;3.20;1.20;;;13.40;47.00;;;;;;4961368;28;20447;-85
2022/04/01 00:21:10;;;;;;;1.50;1.10;;;13.40;47.00;;;;;;4963535;29;20596;-84
2022/04/01 00:23:39;;;;;;;1.93;1.20;;;13.40;47.20;;;;;;4957622;29;20436;-86
2022/04/01 00:26:07;;;;;;;2.50;1.00;;;13.40;47.20;;;;;;4951487;29;20440;-86
2022/04/01 00:28:36;;;;;;;1.10;1.00;;;13.40;47.20;;;;;;4952712;29;20463;-85
2022/04/01 00:31:04;;;;;;;1.30;1.20;;;13.30;47.30;;;;;;4950748;29;20471;-85
2022/04/01 00:33:32;;;;;;;2.50;1.07;;;13.30;47.30;;;;;;4951774;29;20456;-85
2022/04/01 00:36:00;;;;;;;2.17;1.20;;;13.40;47.40;;;;;;4949709;29;20452;-85
2022/04/01 00:38:28;;;;;;;3.93;1.10;;;13.40;47.50;;;;;;4949580;29;20480;-85
2022/04/01 00:40:59;;;;;;;2.93;1.10;;;13.40;47.40;;;;;;4949501;29;20448;-85
2022/04/01 00:43:28;;;;;;;1.50;1.37;;;13.40;47.50;;;;;;4952971;29;20459;-85
2022/04/01 00:45:57;;;;;;;1.10;1.00;;;13.40;47.40;;;;;;4953739;29;20444;-86
2022/04/01 00:48:25;;;;;;;1.30;1.20;;;13.40;47.20;;;;;;4952952;29;20460;-85
2022/04/01 00:50:54;;;;;;;4.40;1.10;;;13.40;47.30;;;;;;4946605;29;20538;-85
2022/04/01 00:53:22;;;;;;;2.27;1.10;;;13.40;47.30;;;;;;4945540;29;20456;-85
2022/04/01 00:55:50;;;;;;;1.57;0.90;;;13.40;47.30;;;;;;4946003;29;20484;-85
2022/04/01 00:58:20;;;;;;;1.30;0.90;;;13.30;47.30;;;;;;4945543;29;20495;-85
2022/04/01 01:00:49;;;;;;;1.57;1.20;;;13.30;47.20;;;;;;4947550;29;20448;-86
2022/04/01 01:03:17;;;;;;;2.57;1.37;;;13.30;47.30;;;;;;4946311;29;20457;-85
2022/04/01 01:05:47;;;;;;;1.20;1.10;;;13.30;47.40;;;;;;4946804;29;20448;-86
2022/04/01 01:08:16;;;;;;;1.83;1.40;;;13.30;47.20;;;;;;4946556;29;20476;-85
2022/04/01 01:10:45;;;;;;;2.60;1.27;;;13.30;47.10;;;;;;4945531;29;20994;-86
2022/04/01 01:13:24;;;;;;;3.23;1.00;;;13.30;47.20;;;;;;4945626;29;20476;-85
2022/04/01 01:15:53;;;;;;;1.80;1.30;;;13.30;47.20;;;;;;4944259;29;20452;-86
2022/04/01 01:18:21;;;;;;;3.93;1.23;;;13.20;47.10;;;;;;4944379;29;20472;-86
2022/04/01 01:20:55;;;;;;;1.03;0.93;;;13.30;47.30;;;;;;4944361;29;20444;-86
2022/04/01 01:23:34;;;;;;;1.87;0.90;;;13.20;47.10;;;;;;4946096;29;20455;-85
2022/04/01 01:26:28;;;;;;;1.70;1.10;;;13.20;47.20;;;;;;4947190;29;20543;-86
2022/04/01 01:29:01;;;;;;;5.13;1.30;;;13.20;47.30;;;;;;4946061;29;20447;-86
2022/04/01 01:31:41;;;;;;;1.10;1.10;;;13.20;47.30;;;;;;4946057;29;20493;-85
2022/04/01 01:34:18;;;;;;;0.83;0.83;;;13.20;47.30;;;;;;4946540;29;20455;-86
2022/04/01 01:36:56;;;;;;;3.00;1.17;;;13.20;47.10;;;;;;4965855;28;20474;-85
2022/04/01 01:39:24;;;;;;;1.93;0.97;;;13.20;47.10;;;;;;4973240;28;20446;-86
2022/04/01 01:41:57;;;;;;;1.00;1.00;;;13.20;47.10;;;;;;4971754;28;20446;-86
2022/04/01 01:44:26;;;;;;;1.10;1.10;;;13.20;47.10;;;;;;4981508;28;20442;-86
2022/04/01 01:46:55;;;;;;;2.10;1.00;;;13.20;47.00;;;;;;4970156;28;20475;-86
2022/04/01 01:49:26;;;;;;;1.30;1.20;;;13.20;47.10;;;;;;4981855;28;20450;-86
2022/04/01 01:54:50;;;;;;;0.90;0.90;;;13.10;47.10;;;;;;4971535;28;20450;-86
2022/04/01 01:57:22;;;;;;;1.03;0.93;;;13.10;47.00;;;;;;4964747;28;20466;-86
2022/04/01 01:59:50;;;;;;;1.30;1.20;;;13.20;47.10;;;;;;4979486;28;20487;-87
2022/04/01 02:02:19;;;;;;;2.30;1.30;;;13.10;46.90;;;;;;4977244;28;20446;-86
2022/04/01 02:04:50;;;;;;;1.47;0.80;;;13.20;46.90;;;;;;4974938;28;20534;-85
2022/04/01 02:07:20;;;;;;;1.23;1.10;;;13.20;46.90;;;;;;4983366;28;20470;-86
2022/04/01 02:09:48;;;;;;;1.37;0.90;;;13.10;46.90;;;;;;4983389;28;20446;-86
2022/04/01 02:12:19;;;;;;;1.20;1.10;;;13.10;46.80;;;;;;4982989;28;20506;-86
2022/04/01 02:14:51;;;;;;;4.97;0.90;;;13.20;46.90;;;;;;4983801;28;20466;-86
2022/04/01 02:17:22;;;;;;;0.93;0.93;;;13.20;46.70;;;;;;4983447;28;20470;-85
2022/04/01 02:20:01;;;;;;;1.10;1.00;;;13.20;46.80;;;;;;4984851;28;20472;-85
2022/04/01 02:22:35;;;;;;;1.10;1.00;;;13.10;46.80;;;;;;4985053;28;20540;-85
2022/04/01 02:25:07;;;;;;;1.53;0.97;;;13.10;46.80;;;;;;4985802;28;20830;-85
2022/04/01 02:27:38;;;;;;;1.27;1.10;;;13.10;46.70;;;;;;4985226;28;20509;-86
2022/04/01 02:30:11;;;;;;;1.17;0.90;;;13.10;46.80;;;;;;4985173;28;20446;-88
2022/04/01 02:32:39;;;;;;;1.37;1.23;;;13.10;46.90;;;;;;4987516;28;20474;-85
2022/04/01 02:35:10;;;;;;;1.10;1.00;;;13.10;46.80;;;;;;4987746;28;20450;-86
2022/04/01 02:37:41;;;;;;;1.13;1.10;;;13.10;46.80;;;;;;4987668;28;20477;-86
2022/04/01 02:40:11;;;;;;;1.97;0.80;;;13.00;46.70;;;;;;4987518;28;20504;-86
2022/04/01 02:42:39;;;;;;;2.27;0.97;;;13.10;47.00;;;;;;4987165;28;20442;-86
2022/04/01 02:45:11;;;;;;;1.23;0.97;;;13.10;46.70;;;;;;4988127;28;20446;-87
2022/04/01 02:47:39;;;;;;;1.57;1.20;;;13.10;46.70;;;;;;4988313;28;20521;-86
2022/04/01 02:50:11;;;;;;;1.47;1.00;;;13.10;46.60;;;;;;4988247;28;20504;-86
2022/04/01 02:52:41;;;;;;;0.87;0.87;;;13.10;46.70;;;;;;4987965;28;20477;-86
2022/04/01 02:55:10;;;;;;;0.80;0.80;;;13.10;46.10;;;;;;4987915;28;20451;-86
2022/04/01 02:57:47;;;;;;;0.97;0.87;;;13.00;46.50;;;;;;4989300;28;20462;-86
2022/04/01 03:00:35;;;;;;;1.67;0.93;;;13.10;46.80;;;;;;4972375;28;20454;-85
2022/04/01 03:03:22;;;;;;;2.00;0.90;;;13.00;46.60;;;;;;4968744;28;20450;-86
2022/04/01 03:05:54;;;;;;;1.97;0.90;;;13.00;46.60;;;;;;4968755;28;20447;-86
2022/04/01 03:08:28;;;;;;;1.43;0.90;;;13.00;46.60;;;;;;4967765;28;20481;-86
2022/04/01 03:11:06;;;;;;;1.00;0.90;;;13.00;46.60;;;;;;4969143;28;20438;-86
2022/04/01 03:13:35;;;;;;;1.00;1.00;;;13.10;46.60;;;;;;4967935;28;20466;-86
2022/04/01 03:16:12;;;;;;;1.23;1.07;;;13.00;46.50;;;;;;4968174;28;20474;-86
2022/04/01 03:18:44;;;;;;;2.00;0.97;;;13.10;46.40;;;;;;4967934;28;20447;-86
2022/04/01 03:21:18;;;;;;;1.37;1.10;;;13.10;46.30;;;;;;4967815;28;20451;-86
2022/04/01 03:23:49;;;;;;;1.00;1.00;;;13.00;46.40;;;;;;4966558;28;20502;-86
2022/04/01 03:26:17;;;;;;;1.17;1.17;;;13.00;46.50;;;;;;4966717;28;20510;-86
2022/04/01 03:28:46;;;;;;;1.00;1.00;;;13.00;46.20;;;;;;4970286;28;20462;-86
2022/04/01 03:31:20;;;;;;;1.03;0.83;;;13.00;46.40;;;;;;4968918;28;20446;-86
2022/04/01 03:33:49;;;;;;;1.00;1.00;;;13.00;46.20;;;;;;4967139;28;20537;-86
2022/04/01 03:36:21;;;;;;;1.00;1.00;;;13.00;46.20;;;;;;4966359;28;20478;-86
2022/04/01 03:38:54;;;;;;;0.97;0.97;;;13.10;46.60;;;;;;4965401;28;20490;-87
2022/04/01 03:41:25;;;;;;;0.80;0.80;;;13.10;46.00;;;;;;4965411;28;20462;-86
2022/04/01 03:43:54;;;;;;;4.30;1.10;;;13.10;46.00;;;;;;4964952;28;20458;-86
2022/04/01 03:46:53;;;;;;;1.00;1.00;;;13.00;45.90;;;;;;4972013;28;20450;-85
2022/04/01 03:49:34;;;;;;;0.80;0.80;;;13.00;46.10;;;;;;4946873;29;20447;-86
2022/04/01 03:52:07;;;;;;;1.00;1.00;;;13.00;46.00;;;;;;4947341;29;20480;-86
2022/04/01 03:54:35;;;;;;;0.80;0.80;;;13.00;46.00;;;;;;4947917;29;20452;-85
2022/04/01 03:57:07;;;;;;;1.07;1.07;;;13.00;45.90;;;;;;4947349;29;20514;-86
2022/04/01 03:59:41;;;;;;;1.03;0.90;;;13.00;46.10;;;;;;4965248;29;20455;-86
2022/04/01 04:02:18;;;;;;;1.40;1.10;;;13.00;46.10;;;;;;4967108;28;20443;-85
2022/04/01 04:04:46;;;;;;;0.80;0.80;;;13.00;46.10;;;;;;4965124;28;20470;-86
2022/04/01 04:07:17;;;;;;;0.70;0.70;;;13.00;46.10;;;;;;4964264;28;20474;-86
2022/04/01 04:09:56;;;;;;;1.03;0.87;;;13.00;46.00;;;;;;4964644;28;20447;-85
2022/04/01 04:12:26;;;;;;;2.03;0.93;;;13.00;45.90;;;;;;4965166;28;20470;-86
2022/04/01 04:15:01;;;;;;;3.43;0.87;;;13.10;45.90;;;;;;4966431;28;20451;-86
2022/04/01 04:17:44;;;;;;;1.40;1.07;;;13.00;45.70;;;;;;4965212;28;20475;-87
2022/04/01 04:20:18;;;;;;;1.20;1.13;;;13.00;45.80;;;;;;4965358;28;20451;-86
2022/04/01 04:22:51;;;;;;;1.10;0.87;;;13.00;45.90;;;;;;4966546;28;20592;-86
2022/04/01 04:25:26;;;;;;;1.00;1.00;;;13.00;45.80;;;;;;4965960;28;20447;-86
2022/04/01 04:27:59;;;;;;;2.27;1.10;;;13.00;45.70;;;;;;4966409;28;20530;-85
2022/04/01 04:30:32;;;;;;;1.20;0.80;;;13.00;45.90;;;;;;4965067;28;20478;-86
2022/04/01 04:33:06;;;;;;;1.57;0.90;;;12.90;45.80;;;;;;4968675;28;20458;-86
2022/04/01 04:35:37;;;;;;;1.17;0.90;;;13.00;45.70;;;;;;4973133;28;20449;-85
2022/04/01 04:38:09;;;;;;;1.17;0.90;;;13.00;45.60;;;;;;4973166;28;20475;-86
2022/04/01 04:40:41;;;;;;;1.00;0.80;;;13.00;45.50;;;;;;4972985;29;20475;-86
2022/04/01 04:43:11;;;;;;;0.97;0.97;;;13.00;45.40;;;;;;4967669;28;20435;-86
2022/04/01 04:45:39;;;;;;;0.93;0.90;;;12.90;45.40;;;;;;4964628;28;20458;-86
2022/04/01 04:48:09;;;;;;;1.07;0.90;;;12.90;45.60;;;;;;4964147;28;20474;-85
2022/04/01 04:50:38;;;;;;;0.90;0.90;;;12.90;45.50;;;;;;4965231;28;20459;-85
2022/04/01 04:53:06;;;;;;;0.90;0.90;;;13.00;45.60;;;;;;4965682;28;20475;-85
2022/04/01 04:55:35;;;;;;;2.30;1.50;;;12.90;45.50;;;;;;4963913;28;20457;-86
2022/04/01 04:58:03;;;;;;;2.00;1.70;;;12.90;45.50;;;;;;4964063;28;20470;-86
2022/04/01 05:00:32;;;;;;;3.03;1.90;;;13.00;45.20;;;;;;4965372;28;20455;-86
2022/04/01 05:03:32;;;;;;;6.20;3.87;;;13.00;45.30;;;;;;4964646;28;20454;-87
2022/04/01 05:06:01;;;;;;;6.13;4.73;;;12.90;45.30;;;;;;4964205;28;20502;-87
2022/04/01 05:08:46;;;;;;;7.40;4.30;;;12.90;45.20;;;;;;4965954;28;20458;-84
2022/04/01 05:11:17;;;;;;;6.90;4.43;;;13.00;45.30;;;;;;4965529;28;20475;-85
2022/04/01 05:13:49;;;;;;;6.87;4.90;;;12.90;45.20;;;;;;4965174;28;20474;-85
2022/04/01 05:16:26;;;;;;;5.80;4.60;;;12.90;45.20;;;;;;4965047;28;20494;-85
2022/04/01 05:19:01;;;;;;;6.83;4.97;;;12.90;45.20;;;;;;4964554;28;20455;-86
2022/04/01 05:21:29;;;;;;;7.50;4.83;;;12.90;45.10;;;;;;4964101;28;20450;-84
2022/04/01 05:24:00;;;;;;;6.43;4.87;;;12.90;45.20;;;;;;4964278;28;20447;-85
2022/04/01 05:26:38;;;;;;;7.20;5.13;;;13.00;45.20;;;;;;4964349;28;20507;-83
2022/04/01 05:29:10;;;;;;;6.43;5.00;;;13.00;45.10;;;;;;4964704;28;20455;-88
2022/04/01 05:31:46;;;;;;;10.63;6.03;;;13.00;45.00;;;;;;4965932;28;20447;-85
2022/04/01 05:34:19;;;;;;;6.27;5.00;;;13.00;44.90;;;;;;4965883;28;20971;-84
2022/04/01 05:36:48;;;;;;;8.77;6.07;;;12.90;45.10;;;;;;4964929;28;20477;-85
2022/04/01 05:39:19;;;;;;;9.13;5.90;;;12.90;45.00;;;;;;4964614;28;20447;-85
2022/04/01 05:41:48;;;;;;;9.73;6.60;;;12.90;45.00;;;;;;4964084;28;20487;-85
2022/04/01 05:44:16;;;;;;;13.90;6.57;;;13.00;45.00;;;;;;4964755;28;20507;-85
2022/04/01 05:46:45;;;;;;;10.73;7.00;;;13.00;44.90;;;;;;4965013;28;20467;-85
2022/04/01 05:49:17;;;;;;;10.30;6.10;;;12.90;44.70;;;;;;4965654;28;20461;-85
2022/04/01 05:51:49;;;;;;;16.27;6.73;;;13.00;45.00;;;;;;4966092;28;20455;-84
2022/04/01 05:54:19;;;;;;;8.30;6.13;;;13.00;45.00;;;;;;4965417;28;20580;-86
2022/04/01 05:56:50;;;;;;;7.50;5.53;;;13.00;44.90;;;;;;4965214;28;20534;-86
2022/04/01 05:59:19;;;;;;;9.80;5.53;;;12.90;44.80;;;;;;4964878;28;20451;-86
2022/04/01 06:01:50;;;;;;;8.37;5.30;;;12.90;44.90;;;;;;4965503;28;20443;-85
2022/04/01 06:04:45;;;;;;;11.20;6.90;;;13.00;44.90;;;;;;4966025;28;20486;-84
2022/04/01 06:07:20;;;;;;;8.63;5.97;;;13.00;44.90;;;;;;4972743;28;20482;-87
2022/04/01 06:09:55;;;;;;;9.00;5.73;;;13.00;44.70;;;;;;4970427;28;20447;-86
2022/04/01 06:12:33;;;;;;;10.47;6.17;;;13.00;44.70;;;;;;4974584;28;20439;-85
2022/04/01 06:15:08;;;;;;;8.87;5.80;;;13.00;44.90;;;;;;4976476;28;20493;-87
2022/04/01 06:17:43;;;;;;;8.73;5.20;;;13.00;44.80;;;;;;4979381;28;20463;-86
2022/04/01 06:20:18;;;;;;;7.50;5.43;;;13.00;44.70;;;;;;4975984;29;20470;-86
2022/04/01 06:22:50;;;;;;;9.03;5.77;;;13.10;44.70;;;;;;4969928;28;20455;-85
2022/04/01 06:25:20;;;;;;;7.60;5.03;;;13.00;44.80;;;;;;4969836;28;20446;-85
2022/04/01 06:27:49;;;;;;;9.90;5.90;;;13.10;44.80;;;;;;4970027;28;20482;-85
2022/04/01 06:30:18;;;;;;;9.50;5.57;;;13.10;44.80;;;;;;4969750;28;20457;-86
2022/04/01 06:32:53;;;;;;;6.90;4.90;;;13.00;44.80;;;;;;4969673;28;20501;-86
2022/04/01 06:35:26;;;;;;;6.37;4.50;;;13.10;44.80;;;;;;4969571;28;20453;-85
2022/04/01 06:37:58;;;;;;;8.97;4.73;;;13.10;44.80;;;;;;4969182;28;20482;-85
2022/04/01 06:40:29;;;;;;;8.80;4.83;;;13.20;44.80;;;;;;4968939;28;20439;-86
2022/04/01 06:43:06;;;;;;;6.37;4.60;;;13.30;44.60;;;;;;4969294;28;20446;-85
2022/04/01 06:45:35;;;;;;;8.33;5.03;;;13.20;44.40;;;;;;4973471;28;20435;-86
2022/04/01 06:48:09;;;;;;;7.50;4.47;;;13.20;44.60;;;;;;4975090;28;20476;-86
2022/04/01 06:50:49;;;;;;;10.77;4.30;;;13.20;44.60;;;;;;4973552;28;20451;-85
2022/04/01 06:53:21;;;;;;;5.80;4.70;;;13.20;44.40;;;;;;4971162;29;20451;-85
2022/04/01 06:55:50;;;;;;;5.00;4.03;;;13.20;44.60;;;;;;4970767;28;20455;-85
2022/04/01 06:58:26;;;;;;;5.97;4.00;;;13.20;44.80;;;;;;4970243;28;20506;-85
2022/04/01 07:00:57;;;;;;;6.20;4.10;;;13.20;44.80;;;;;;4969061;28;20530;-84
2022/04/01 07:03:37;;;;;;;5.20;3.80;;;13.20;44.60;;;;;;4969099;28;20438;-86
2022/04/01 07:06:09;;;;;;;5.37;3.90;;;13.30;44.80;;;;;;4968810;28;20446;-85
2022/04/01 07:08:42;;;;;;;5.90;3.80;;;13.30;44.60;;;;;;4968571;28;20453;-85
2022/04/01 07:11:12;;;;;;;4.73;4.10;;;13.30;44.60;;;;;;4969074;28;20443;-86
2022/04/01 07:13:40;;;;;;;6.17;3.70;;;13.30;44.60;;;;;;4967914;28;20471;-86
2022/04/01 07:16:10;;;;;;;5.43;3.73;;;13.30;44.60;;;;;;4967117;28;20451;-86
2022/04/01 07:18:39;;;;;;;5.27;3.67;;;13.30;44.70;;;;;;4968047;28;20443;-86
2022/04/01 07:21:14;;;;;;;5.10;3.90;;;13.40;44.70;;;;;;4968221;28;20474;-86
2022/04/01 07:23:43;;;;;;;5.53;3.83;;;13.50;44.40;;;;;;4967651;28;20453;-86
2022/04/01 07:26:15;;;;;;;6.00;3.67;;;13.50;44.10;;;;;;4967517;28;20451;-85
2022/04/01 07:28:44;;;;;;;8.53;3.80;;;13.50;44.30;;;;;;4968222;28;20463;-87
2022/04/01 07:34:25;;;;;;;4.60;3.67;;;13.50;44.30;;;;;;4967166;28;20481;-86
2022/04/01 07:36:55;;;;;;;4.13;3.60;;;13.50;44.40;;;;;;4966802;28;20474;-85
2022/04/01 07:39:26;;;;;;;3.70;3.30;;;13.60;44.80;;;;;;4967194;28;20536;-86
2022/04/01 07:41:58;;;;;;;3.50;3.10;;;13.60;44.10;;;;;;4967981;28;20447;-86
2022/04/01 07:44:26;;;;;;;3.70;3.23;;;13.60;44.30;;;;;;4967608;28;20447;-86
2022/04/01 07:46:55;;;;;;;6.03;3.33;;;13.70;44.00;;;;;;4966594;28;20503;-87
2022/04/01 07:49:23;;;;;;;3.30;2.83;;;13.70;43.90;;;;;;4963291;28;20470;-86
2022/04/01 07:52:15;;;;;;;5.83;3.30;;;13.80;43.60;;;;;;4966319;28;20506;-86
2022/04/01 07:54:48;;;;;;;4.47;3.20;;;13.70;44.00;;;;;;4966825;28;20494;-86
2022/04/01 07:57:16;;;;;;;6.70;3.17;;;13.80;43.80;;;;;;4957049;28;20468;-85
2022/04/01 07:59:44;;;;;;;2.70;2.50;;;13.90;43.70;;;;;;4955148;28;20507;-86
2022/04/01 08:02:13;;;;;;;3.30;2.43;;;13.80;43.50;;;;;;4948074;29;20452;-86
2022/04/01 08:04:43;;;;;;;2.90;2.70;;;13.80;43.60;;;;;;4945155;29;20475;-86
2022/04/01 08:07:16;;;;;;;5.17;3.00;;;13.90;43.60;;;;;;4946145;29;20472;-86
2022/04/01 08:09:44;;;;;;;4.97;3.07;;;13.90;43.30;;;;;;4945887;29;20448;-86
2022/04/01 08:12:13;;;;;;;4.07;3.00;;;13.90;43.20;;;;;;4945356;29;20522;-85
2022/04/01 08:14:41;;;;;;;3.50;2.83;;;13.90;43.40;;;;;;4945343;29;20480;-85
2022/04/01 08:17:11;;;;;;;2.50;2.30;;;14.00;43.40;;;;;;4961814;29;20494;-85
2022/04/01 08:19:40;;;;;;;4.87;2.50;;;14.10;43.10;;;;;;4964535;28;20514;-86
2022/04/01 08:22:08;;;;;;;3.47;2.70;;;14.00;43.60;;;;;;4967972;28;20477;-85
2022/04/01 08:24:38;;;;;;;5.60;3.00;;;13.90;43.10;;;;;;4954401;29;20436;-86
2022/04/01 08:27:11;;;;;;;2.73;2.53;;;14.00;42.90;;;;;;4953432;29;20484;-86
2022/04/01 08:29:41;;;;;;;2.60;2.40;;;14.00;43.10;;;;;;4957022;28;20449;-86
2022/04/01 08:32:10;;;;;;;2.80;2.60;;;14.00;43.10;;;;;;4963945;29;20439;-86
2022/04/01 08:34:38;;;;;;;3.23;2.70;;;14.00;43.20;;;;;;4966908;28;20471;-86
2022/04/01 08:37:08;;;;;;;3.23;2.97;;;14.10;42.90;;;;;;4967871;28;20463;-86
2022/04/01 08:39:43;;;;;;;2.60;2.40;;;14.10;42.90;;;;;;4946801;29;20543;-86
2022/04/01 08:42:12;;;;;;;4.30;2.80;;;14.30;42.60;;;;;;4947668;29;20443;-85
2022/04/01 08:44:41;;;;;;;2.83;2.63;;;14.20;42.70;;;;;;4947207;29;20440;-85
2022/04/01 08:47:09;;;;;;;2.83;2.60;;;14.30;42.50;;;;;;4955415;29;20464;-85
2022/04/01 08:49:39;;;;;;;4.97;2.90;;;14.30;42.50;;;;;;4958988;28;20871;-85
2022/04/01 08:52:10;;;;;;;4.70;2.77;;;14.20;42.70;;;;;;4956125;28;20535;-86
2022/04/01 08:54:40;;;;;;;3.20;2.87;;;14.40;42.60;;;;;;4953762;28;20516;-86
2022/04/01 08:57:09;;;;;;;3.87;2.70;;;14.30;42.50;;;;;;4955350;29;20467;-86
2022/04/01 08:59:38;;;;;;;2.83;2.60;;;14.50;42.30;;;;;;4956025;28;20443;-86
2022/04/01 09:02:09;;;;;;;2.87;2.60;;;14.40;42.20;;;;;;4956728;29;20447;-86
2022/04/01 09:04:38;;;;;;;3.30;3.00;;;14.40;42.30;;;;;;4956609;29;20447;-86
2022/04/01 09:07:13;;;;;;;2.87;2.67;;;14.50;42.10;;;;;;4960058;28;20492;-86
2022/04/01 09:09:43;;;;;;;3.17;2.60;;;14.50;42.10;;;;;;4957576;29;20446;-86
2022/04/01 09:12:13;;;;;;;2.60;2.40;;;14.50;42.10;;;;;;4955479;28;20479;-86
2022/04/01 09:14:42;;;;;;;4.37;2.60;;;14.50;42.10;;;;;;4955252;28;20463;-86
2022/04/01 09:17:11;;;;;;;5.83;2.53;;;14.50;42.00;;;;;;4955985;29;20538;-86
2022/04/01 09:19:48;;;;;;;2.37;2.27;;;14.50;42.10;;;;;;4955742;29;20543;-86
2022/04/01 09:22:18;;;;;;;2.80;2.60;;;14.70;41.80;;;;;;4965275;28;20479;-86
2022/04/01 09:24:58;;;;;;;2.33;2.23;;;14.80;41.70;;;;;;4965620;28;20510;-86
2022/04/01 09:27:40;;;;;;;4.37;2.50;;;14.90;41.50;;;;;;4963672;28;20482;-85
2022/04/01 09:30:10;;;;;;;4.20;2.90;;;14.90;41.50;;;;;;4965014;28;20506;-86
2022/04/01 09:32:39;;;;;;;2.30;2.10;;;14.90;41.50;;;;;;4966380;28;20526;-86
2022/04/01 09:35:09;;;;;;;3.67;2.40;;;14.70;41.60;;;;;;4966569;28;20467;-86
2022/04/01 09:37:39;;;;;;;3.73;2.80;;;14.80;41.50;;;;;;4966207;29;20474;-87
2022/04/01 09:40:10;;;;;;;4.70;3.27;;;14.90;41.50;;;;;;4966303;28;20454;-86
2022/04/01 09:42:39;;;;;;;2.60;2.40;;;15.00;41.40;;;;;;4970626;28;20450;-86
2022/04/01 09:45:08;;;;;;;2.40;2.20;;;15.10;41.10;;;;;;4970912;28;20452;-86
2022/04/01 09:47:38;;;;;;;2.93;2.63;;;15.20;41.10;;;;;;4970541;28;20543;-85
2022/04/01 09:50:17;;;;;;;3.23;2.23;;;15.00;41.20;;;;;;4969768;28;20509;-85
2022/04/01 09:52:49;;;;;;;2.57;2.10;;;15.10;40.90;;;;;;4971082;28;20463;-86
2022/04/01 09:55:18;;;;;;;3.17;2.40;;;15.10;41.00;;;;;;4969982;28;20499;-85
2022/04/01 09:57:51;;;;;;;2.97;2.20;;;15.20;40.90;;;;;;4966289;28;20467;-86
2022/04/01 10:00:19;;;;;;;2.60;2.40;;;15.30;40.70;;;;;;4951755;29;20507;-86
2022/04/01 10:02:48;;;;;;;2.50;2.30;;;15.40;40.80;;;;;;4952980;29;20448;-86
2022/04/01 10:05:16;;;;;;;3.13;2.20;;;15.50;40.60;;;;;;4952909;29;20452;-86
2022/04/01 10:07:44;;;;;;;2.70;2.30;;;15.50;40.60;;;;;;4953838;29;20487;-87
2022/04/01 10:10:12;;;;;;;2.27;2.07;;;15.60;40.50;;;;;;4960094;29;20448;-85
2022/04/01 10:12:43;;;;;;;3.20;1.93;;;15.60;40.40;;;;;;4959774;29;20447;-86
2022/04/01 10:15:11;;;;;;;2.77;2.50;;;15.60;40.40;;;;;;4959407;29;20451;-85
2022/04/01 10:17:55;;;;;;;3.10;2.23;;;15.70;40.30;;;;;;4959860;29;20452;-85
2022/04/01 10:20:23;;;;;;;2.30;2.20;;;15.60;40.20;;;;;;4959767;29;20467;-85
2022/04/01 10:22:51;;;;;;;2.37;2.00;;;15.70;40.50;;;;;;4959898;29;20432;-85
2022/04/01 10:25:21;;;;;;;2.17;2.07;;;15.70;40.30;;;;;;4959988;29;20467;-86
2022/04/01 10:27:52;;;;;;;2.17;1.97;;;15.70;40.40;;;;;;4952913;29;20503;-86
2022/04/01 10:30:21;;;;;;;2.47;2.27;;;15.70;40.60;;;;;;4951871;29;20477;-86
2022/04/01 10:32:52;;;;;;;2.10;2.00;;;15.70;40.60;;;;;;4951287;29;20475;-87
2022/04/01 10:35:24;;;;;;;3.67;2.30;;;15.80;40.50;;;;;;4945215;29;20527;-86
2022/04/01 10:37:55;;;;;;;2.80;2.60;;;15.80;40.30;;;;;;4944260;29;20468;-86
2022/04/01 10:40:25;;;;;;;2.00;1.80;;;15.80;40.50;;;;;;4944221;29;20499;-86
2022/04/01 10:42:55;;;;;;;4.73;2.23;;;15.80;40.50;;;;;;4944285;29;20459;-85
2022/04/01 10:45:25;;;;;;;2.13;2.03;;;15.90;40.50;;;;;;4944895;28;20440;-87
2022/04/01 10:53:37;;;;;;;2.57;2.03;;;15.80;40.50;;;;;;4943821;29;20482;-87
2022/04/01 10:56:37;;;;;;;2.10;2.00;;;15.80;40.40;;;;;;4948866;28;20514;-87
2022/04/01 10:59:08;;;;;;;2.37;1.90;;;15.80;40.50;;;;;;4967069;28;20471;-85
2022/04/01 11:01:37;;;;;;;3.33;2.30;;;15.80;40.40;;;;;;4982706;28;20466;-86
2022/04/01 11:04:27;;;;;;;2.00;1.80;;;15.80;40.30;;;;;;4982779;28;20453;-86
2022/04/01 11:06:56;;;;;;;2.10;2.00;;;15.80;40.30;;;;;;4983176;28;20466;-87
2022/04/01 11:09:34;;;;;;;2.10;2.00;;;15.90;40.20;;;;;;4984977;28;21047;-86
2022/04/01 11:12:29;;;;;;;2.80;1.83;;;15.80;40.30;;;;;;4966055;28;20447;-87
2022/04/01 11:15:14;;;;;;;2.07;1.90;;;16.00;40.30;;;;;;4978921;28;20451;-86
2022/04/01 11:18:04;;;;;;;1.90;1.77;;;16.00;39.90;;;;;;4974217;28;20552;-87
2022/04/01 11:20:35;;;;;;;4.40;1.60;;;16.10;39.90;;;;;;4959972;28;20467;-87
2022/04/01 11:23:17;;;;;;;2.40;2.20;;;16.20;39.80;;;;;;4965763;28;20522;-86
2022/04/01 11:26:04;;;;;;;2.00;1.90;;;16.20;39.80;;;;;;4957035;28;20439;-86
2022/04/01 11:28:52;;;;;;;2.87;1.93;;;16.30;39.90;;;;;;4945806;29;20451;-86
2022/04/01 11:31:37;;;;;;;1.80;1.70;;;16.30;39.90;;;;;;4951287;28;20464;-86
2022/04/01 11:34:15;;;;;;;1.83;1.73;;;16.30;39.80;;;;;;4954106;29;20444;-86
2022/04/01 11:36:51;;;;;;;3.07;1.73;;;16.30;39.60;;;;;;4952014;29;20479;-87
2022/04/01 11:39:43;;;;;;;2.27;1.77;;;16.20;39.80;;;;;;4955075;29;20482;-87
2022/04/01 11:45:51;;;;;;;1.83;1.73;;;16.30;40.00;;;;;;4951724;28;20481;-86
2022/04/01 11:52:52;;;;;;;2.23;2.03;;;16.50;39.70;;;;;;4862775;29;20438;-86
2022/04/01 12:03:38;;;;;;;2.30;2.10;;;16.40;40.10;;;;;;4778640;29;20446;-85
2022/04/01 12:09:02;;;;;;;3.13;1.80;;;16.60;39.90;;;;;;4943063;29;20475;-85
2022/04/01 12:11:39;;;;;;;2.20;2.00;;;16.60;39.90;;;;;;4947190;28;20443;-85
2022/04/01 12:14:10;;;;;;;1.90;1.53;;;16.70;39.50;;;;;;4951924;29;20452;-85
2022/04/01 12:16:42;;;;;;;2.20;2.00;;;16.70;39.20;;;;;;4945901;28;20488;-86
2022/04/01 12:19:16;;;;;;;2.40;1.80;;;16.70;39.20;;;;;;4944019;28;20475;-88
2022/04/01 12:21:44;;;;;;;2.00;1.90;;;16.70;38.90;;;;;;4941925;28;20447;-87
2022/04/01 12:24:12;;;;;;;2.80;2.20;;;16.40;39.60;;;;;;4941989;28;20455;-86
2022/04/01 12:26:43;;;;;;;1.93;1.73;;;16.40;39.60;;;;;;4942489;28;20464;-86
2022/04/01 12:29:19;;;;;;;4.50;1.80;;;16.40;40.00;;;;;;4940188;28;20451;-87
2022/04/01 12:31:50;;;;;;;1.83;1.73;;;16.50;39.80;;;;;;4942722;28;20451;-86
2022/04/01 12:34:19;;;;;;;3.93;2.17;;;16.60;39.40;;;;;;4944532;28;20495;-86
2022/04/01 12:36:52;;;;;;;2.17;2.00;;;16.70;39.20;;;;;;4945104;28;20479;-86
2022/04/01 12:39:20;;;;;;;2.53;2.07;;;17.00;38.90;;;;;;4943632;28;20519;-86
2022/04/01 12:41:54;;;;;;;6.33;2.00;;;17.10;38.60;;;;;;4943189;28;20456;-87
2022/04/01 12:44:27;;;;;;;5.13;2.10;;;17.20;38.50;;;;;;4943648;28;20516;-86
2022/04/01 12:47:03;;;;;;;3.60;1.97;;;17.10;38.80;;;;;;4944118;28;20471;-84
2022/04/01 12:49:36;;;;;;;3.53;2.13;;;16.90;39.20;;;;;;4944891;28;20451;-85
2022/04/01 12:52:09;;;;;;;1.87;1.60;;;17.00;39.10;;;;;;4947015;28;20456;-85
2022/04/01 12:54:42;;;;;;;1.70;1.60;;;17.00;39.10;;;;;;4948089;28;20448;-85
2022/04/01 12:57:22;;;;;;;2.40;1.83;;;17.10;39.00;;;;;;4944649;28;20570;-85
2022/04/01 12:59:56;;;;;;;2.00;1.80;;;17.20;39.00;;;;;;4943498;28;20455;-86
2022/04/01 13:02:27;;;;;;;3.47;1.70;;;17.10;38.90;;;;;;4943762;28;20524;-86
2022/04/01 13:04:58;;;;;;;2.13;1.63;;;17.10;38.90;;;;;;4943806;28;20455;-85
2022/04/01 13:07:32;;;;;;;2.57;1.80;;;17.10;38.90;;;;;;4943678;28;20474;-86
2022/04/01 13:10:15;;;;;;;1.80;1.70;;;17.10;39.00;;;;;;4944475;28;20456;-85
2022/04/01 13:12:47;;;;;;;3.13;1.83;;;17.10;39.10;;;;;;4943611;28;20455;-86
2022/04/01 13:15:20;;;;;;;3.00;2.10;;;17.10;38.90;;;;;;4943400;28;20476;-85
2022/04/01 13:17:50;;;;;;;2.60;1.60;;;17.10;38.80;;;;;;4944899;28;20475;-86
2022/04/01 13:20:22;;;;;;;5.70;1.80;;;17.20;38.90;;;;;;4945020;28;20475;-86
2022/04/01 13:22:50;;;;;;;6.80;2.30;;;17.10;39.10;;;;;;4943492;28;20463;-86
2022/04/01 13:25:22;;;;;;;2.23;1.70;;;17.10;39.20;;;;;;4945883;28;20459;-85
2022/04/01 13:27:56;;;;;;;3.53;1.80;;;17.10;39.10;;;;;;4943668;28;20484;-85
2022/04/01 13:30:26;;;;;;;4.10;1.87;;;17.10;39.20;;;;;;4944336;28;20471;-86
2022/04/01 13:33:07;;;;;;;1.70;1.60;;;17.00;39.20;;;;;;4944655;28;20506;-86
2022/04/01 13:35:41;;;;;;;4.57;1.83;;;17.00;39.20;;;;;;4944034;28;20519;-86
2022/04/01 13:38:11;;;;;;;3.93;2.13;;;17.00;39.30;;;;;;4943827;28;20535;-86
2022/04/01 13:40:48;;;;;;;3.47;2.10;;;17.00;39.30;;;;;;4943274;28;20451;-86
2022/04/01 13:43:18;;;;;;;4.10;1.77;;;17.00;39.30;;;;;;4943575;28;20456;-86